Lowry, Colorado
Current Conditions -  °F | °C
As of 10:58 PM on Wednesday 26 Nov 2014 (Local Time) from KBKF Reporting Station
Few Clouds Few Clouds  
Wind Chill: 26°   Ceiling: Unl
Heat Index: 26°   Visibility: 10mi
Dew Point: 22°   Wind: 2mph
Humidity: 86%   Direction: 180°S
Pressure: 30.26"   Gusts: NA
Location:  39.732°N, 104.924°W
Report Text: KBKF 270558Z 18002KT 10SM FEW220 M03/M05 A3026 RMK AO2A SLP266 T10351055 11003 21035 52008
Loading
Personal Weather Stations






























Interactive Weather Map New forecast layout! Learn more

10-Day Weather Forecast

Advertisements
Track Severe Weather on mobile